createdAt,value
2017-10-05T00:00:16.602Z,6.37
2017-10-05T00:02:44.212Z,7.30
2017-10-05T00:05:11.808Z,6.33
2017-10-05T00:07:39.386Z,6.57
2017-10-05T00:10:07.323Z,5.70
2017-10-05T00:12:34.906Z,5.70
2017-10-05T00:15:02.492Z,6.10
2017-10-05T00:17:30.078Z,7.43
2017-10-05T00:19:57.732Z,6.40
2017-10-05T00:22:25.782Z,6.00
2017-10-05T00:24:53.358Z,6.40
2017-10-05T00:27:20.950Z,6.67
2017-10-05T00:29:48.554Z,6.43
2017-10-05T00:32:16.150Z,6.50
2017-10-05T00:34:44.513Z,5.13
2017-10-05T00:37:12.127Z,6.10
2017-10-05T00:39:40.031Z,6.83
2017-10-05T00:42:07.595Z,6.50
2017-10-05T00:44:35.185Z,5.97
2017-10-05T00:47:03.561Z,5.70
2017-10-05T00:49:32.005Z,6.20
2017-10-05T00:51:59.658Z,6.20
2017-10-05T00:54:27.246Z,5.57
2017-10-05T00:56:55.091Z,6.23
2017-10-05T00:59:22.641Z,6.20
2017-10-05T01:01:50.211Z,6.37
2017-10-05T01:04:17.834Z,6.53
2017-10-05T01:06:45.686Z,6.73
2017-10-05T01:09:13.305Z,7.10
2017-10-05T01:11:40.895Z,6.37
2017-10-05T01:14:09.634Z,6.37
2017-10-05T01:16:37.247Z,6.27
2017-10-05T01:19:04.811Z,5.80
2017-10-05T01:21:32.381Z,6.30
2017-10-05T01:23:59.978Z,6.07
2017-10-05T01:26:27.604Z,6.70
2017-10-05T01:28:55.262Z,6.53
2017-10-05T01:31:23.955Z,6.37
2017-10-05T01:33:52.198Z,9.20
2017-10-05T01:36:20.536Z,6.90
2017-10-05T01:38:48.136Z,7.00
2017-10-05T01:41:16.483Z,7.67
2017-10-05T01:43:44.223Z,7.57
2017-10-05T01:46:11.802Z,7.30
2017-10-05T01:48:39.398Z,7.17
2017-10-05T01:51:07.756Z,7.30
2017-10-05T01:53:35.378Z,5.90
2017-10-05T01:56:02.971Z,6.90
2017-10-05T01:58:30.538Z,6.93
2017-10-05T02:00:58.175Z,7.27
2017-10-05T02:03:25.802Z,8.23
2017-10-05T02:05:53.660Z,7.27
2017-10-05T02:08:21.239Z,7.50
2017-10-05T02:10:48.903Z,8.37
2017-10-05T02:13:16.512Z,7.00
2017-10-05T02:15:44.856Z,6.93
2017-10-05T02:18:12.495Z,6.07
2017-10-05T02:20:40.116Z,6.10
2017-10-05T02:23:08.843Z,7.50
2017-10-05T02:25:36.461Z,6.30
2017-10-05T02:28:04.810Z,6.37
2017-10-05T02:30:32.409Z,6.60
2017-10-05T02:33:00.750Z,6.87
2017-10-05T02:35:28.342Z,7.90
2017-10-05T02:37:55.928Z,7.00
2017-10-05T02:40:23.831Z,6.80
2017-10-05T02:42:51.505Z,7.37
2017-10-05T02:45:19.119Z,7.00
2017-10-05T02:47:47.447Z,7.53
2017-10-05T02:50:15.017Z,6.03
2017-10-05T02:52:43.471Z,7.73
2017-10-05T02:55:11.052Z,6.77
2017-10-05T02:57:38.911Z,5.50
2017-10-05T03:00:06.538Z,6.47
2017-10-05T03:02:34.117Z,6.83
2017-10-05T03:05:01.722Z,6.70
2017-10-05T03:07:29.286Z,6.70
2017-10-05T03:09:56.907Z,6.20
2017-10-05T03:12:24.491Z,6.63
2017-10-05T03:14:53.106Z,7.80
2017-10-05T03:17:20.678Z,7.10
2017-10-05T03:19:48.317Z,7.70
2017-10-05T03:22:15.914Z,6.00
2017-10-05T03:24:43.491Z,6.60
2017-10-05T03:27:11.087Z,6.73
2017-10-05T03:29:38.721Z,6.70
2017-10-05T03:32:06.575Z,5.30
2017-10-05T03:34:34.151Z,6.07
2017-10-05T03:37:02.493Z,6.70
2017-10-05T03:39:30.201Z,5.33
2017-10-05T03:41:58.531Z,6.17
2017-10-05T03:44:26.121Z,5.50
2017-10-05T03:46:53.696Z,5.80
2017-10-05T03:49:22.335Z,6.53
2017-10-05T03:51:49.894Z,5.83
2017-10-05T03:54:17.456Z,5.30
2017-10-05T03:56:45.055Z,6.13
2017-10-05T03:59:13.414Z,5.40
2017-10-05T04:01:41.029Z,6.90
2017-10-05T04:04:08.595Z,6.33
2017-10-05T04:06:36.462Z,5.70
2017-10-05T04:09:04.097Z,6.13
2017-10-05T04:11:31.670Z,6.90
2017-10-05T04:13:59.271Z,6.40
2017-10-05T04:16:26.936Z,6.40
2017-10-05T04:18:54.569Z,6.60
2017-10-05T04:21:22.155Z,5.67
2017-10-05T04:23:50.834Z,5.53
2017-10-05T04:26:18.434Z,5.97
2017-10-05T04:28:46.774Z,6.77
2017-10-05T04:31:14.375Z,5.90
2017-10-05T04:33:42.725Z,6.53
2017-10-05T04:36:10.349Z,6.13
2017-10-05T04:38:37.925Z,6.60
2017-10-05T04:41:05.893Z,7.07
2017-10-05T04:43:33.487Z,8.43
2017-10-05T04:46:01.127Z,7.50
2017-10-05T04:48:29.542Z,7.87
2017-10-05T04:50:57.133Z,7.70
2017-10-05T04:53:24.743Z,7.67
2017-10-05T04:55:53.110Z,8.70
2017-10-05T04:58:20.726Z,8.20
2017-10-05T05:00:48.333Z,8.37
2017-10-05T05:03:15.955Z,7.40
2017-10-05T05:05:43.845Z,7.80
2017-10-05T05:08:11.529Z,7.60
2017-10-05T05:10:39.122Z,7.27
2017-10-05T05:13:06.728Z,6.63
2017-10-05T05:15:34.670Z,7.10
2017-10-05T05:18:02.274Z,6.53
2017-10-05T05:20:31.361Z,6.77
2017-10-05T05:22:59.320Z,8.00
2017-10-05T05:25:26.907Z,5.83
2017-10-05T05:27:55.274Z,6.70
2017-10-05T05:30:22.903Z,6.07
2017-10-05T05:32:50.485Z,6.77
2017-10-05T05:35:18.134Z,7.40
2017-10-05T05:37:45.722Z,6.63
2017-10-05T05:40:13.652Z,7.20
2017-10-05T05:42:41.243Z,7.70
2017-10-05T05:45:08.866Z,6.67
2017-10-05T05:47:36.607Z,6.70
2017-10-05T05:50:04.222Z,6.97
2017-10-05T05:52:31.838Z,6.37
2017-10-05T05:54:59.408Z,7.57
2017-10-05T05:57:27.266Z,7.20
2017-10-05T05:59:54.843Z,7.40
2017-10-05T06:02:22.439Z,5.80
2017-10-05T06:04:50.839Z,5.83
2017-10-05T06:07:18.430Z,5.50
2017-10-05T06:09:46.038Z,5.80
2017-10-05T06:12:14.432Z,5.87
2017-10-05T06:14:43.076Z,6.40
2017-10-05T06:17:10.670Z,6.30
2017-10-05T06:19:39.384Z,5.67
2017-10-05T06:22:06.974Z,5.83
2017-10-05T06:24:34.582Z,6.43
2017-10-05T06:27:02.926Z,7.10
2017-10-05T06:29:31.372Z,5.33
2017-10-05T06:31:58.979Z,5.70
2017-10-05T06:34:26.598Z,5.77
2017-10-05T06:36:54.295Z,4.33
2017-10-05T06:39:22.099Z,4.23
2017-10-05T06:41:49.725Z,3.90
2017-10-05T06:44:17.769Z,3.83
2017-10-05T06:46:45.370Z,3.80
2017-10-05T06:49:13.772Z,3.30
2017-10-05T06:51:41.402Z,4.03
2017-10-05T06:54:09.749Z,3.43
2017-10-05T06:56:37.453Z,3.57
2017-10-05T06:59:05.841Z,3.30
2017-10-05T07:01:33.434Z,3.17
2017-10-05T07:04:01.004Z,3.60
2017-10-05T07:06:28.891Z,3.20
2017-10-05T07:08:56.466Z,3.07
2017-10-05T07:11:24.819Z,2.87
2017-10-05T07:13:52.438Z,3.20
2017-10-05T07:16:20.047Z,3.60
2017-10-05T07:18:47.789Z,3.23
2017-10-05T07:21:15.399Z,3.20
2017-10-05T07:23:44.078Z,2.90
2017-10-05T07:26:11.690Z,2.97
2017-10-05T07:28:39.312Z,3.20
2017-10-05T07:31:06.929Z,3.33
2017-10-05T07:33:34.532Z,2.83
2017-10-05T07:36:02.166Z,3.17
2017-10-05T07:38:29.753Z,2.50
2017-10-05T07:40:57.667Z,3.27
2017-10-05T07:43:25.297Z,3.30
2017-10-05T07:45:52.894Z,3.23
2017-10-05T07:48:20.523Z,2.67
2017-10-05T07:50:48.099Z,2.77
2017-10-05T07:53:15.796Z,2.70
2017-10-05T07:55:43.398Z,2.70
2017-10-05T07:58:11.390Z,2.70
2017-10-05T08:00:38.979Z,2.67
2017-10-05T08:03:06.599Z,2.60
2017-10-05T08:05:34.193Z,3.00
2017-10-05T08:08:01.771Z,3.20
2017-10-05T08:10:30.708Z,2.70
2017-10-05T08:12:58.370Z,8.20
2017-10-05T08:15:27.150Z,2.97
2017-10-05T08:17:54.727Z,3.80
2017-10-05T08:20:22.306Z,3.20
2017-10-05T08:22:49.894Z,3.20
2017-10-05T08:25:18.305Z,16.07
2017-10-05T08:27:45.915Z,2.57
2017-10-05T08:30:13.502Z,2.93
2017-10-05T08:32:42.247Z,2.50
2017-10-05T08:35:09.836Z,3.37
2017-10-05T08:37:38.180Z,3.00
2017-10-05T08:40:05.884Z,3.40
2017-10-05T08:42:34.231Z,3.27
2017-10-05T08:45:01.859Z,3.27
2017-10-05T08:47:29.469Z,2.90
2017-10-05T08:49:58.121Z,2.97
2017-10-05T08:52:25.698Z,3.10
2017-10-05T08:54:53.395Z,2.70
2017-10-05T08:57:21.794Z,2.90
2017-10-05T08:59:49.398Z,2.30
2017-10-05T09:02:17.734Z,2.57
2017-10-05T09:04:45.336Z,2.90
2017-10-05T09:07:13.235Z,2.80
2017-10-05T09:09:40.822Z,2.30
2017-10-05T09:12:08.405Z,2.50
2017-10-05T09:14:36.170Z,2.43
2017-10-05T09:17:03.775Z,2.00
2017-10-05T09:19:32.163Z,2.10
2017-10-05T09:21:59.752Z,2.33
2017-10-05T09:24:27.645Z,2.30
2017-10-05T09:26:55.221Z,1.93
2017-10-05T09:29:22.858Z,2.10
2017-10-05T09:31:50.612Z,2.10
2017-10-05T09:34:18.214Z,1.90
2017-10-05T09:36:46.579Z,2.07
2017-10-05T09:39:14.201Z,2.13
2017-10-05T09:41:42.088Z,2.27
2017-10-05T09:44:09.707Z,1.97
2017-10-05T09:46:37.300Z,2.33
2017-10-05T09:49:05.092Z,2.57
2017-10-05T09:51:32.667Z,2.70
2017-10-05T09:54:01.286Z,2.30
2017-10-05T09:56:28.874Z,2.33
2017-10-05T09:58:57.314Z,4.80
2017-10-05T10:01:25.772Z,1.90
2017-10-05T10:03:54.172Z,2.70
2017-10-05T10:06:22.058Z,2.20
2017-10-05T10:08:50.397Z,5.73
2017-10-05T10:11:18.793Z,2.00
2017-10-05T10:13:46.492Z,2.90
2017-10-05T10:16:14.062Z,8.60
2017-10-05T10:18:41.662Z,1.90
2017-10-05T10:21:09.258Z,3.50
2017-10-05T10:23:37.131Z,2.20
2017-10-05T10:26:04.747Z,3.30
2017-10-05T10:28:33.091Z,2.20
2017-10-05T10:31:00.702Z,2.83
2017-10-05T10:33:28.454Z,1.93
2017-10-05T10:35:56.131Z,2.17
2017-10-05T10:38:23.722Z,2.00
2017-10-05T10:40:51.709Z,1.90
2017-10-05T10:43:19.429Z,2.33
2017-10-05T10:45:47.047Z,1.97
2017-10-05T10:48:15.435Z,2.27
2017-10-05T10:50:43.785Z,2.00
2017-10-05T10:53:11.492Z,2.00
2017-10-05T10:55:39.071Z,2.27
2017-10-05T10:58:06.939Z,2.60
2017-10-05T11:00:34.524Z,1.70
2017-10-05T11:03:02.159Z,1.97
2017-10-05T11:05:29.780Z,2.40
2017-10-05T11:07:58.160Z,3.17
2017-10-05T11:10:26.839Z,3.43
2017-10-05T11:12:55.229Z,2.60
2017-10-05T11:15:22.825Z,3.20
2017-10-05T11:17:50.495Z,4.50
2017-10-05T11:20:18.093Z,2.80
2017-10-05T11:22:45.739Z,3.97
2017-10-05T11:25:13.335Z,2.63
2017-10-05T11:27:41.981Z,2.50
2017-10-05T11:30:09.583Z,3.00
2017-10-05T11:32:37.165Z,2.83
2017-10-05T11:35:04.783Z,2.30
2017-10-05T11:37:33.148Z,2.63
2017-10-05T11:40:00.747Z,3.90
2017-10-05T11:42:28.401Z,2.50
2017-10-05T11:44:57.035Z,2.53
2017-10-05T11:47:24.630Z,3.37
2017-10-05T11:49:52.970Z,2.60
2017-10-05T11:52:20.632Z,2.80
2017-10-05T11:54:48.274Z,2.80
2017-10-05T11:57:15.913Z,4.70
2017-10-05T11:59:43.501Z,3.50
2017-10-05T12:02:11.485Z,2.80
2017-10-05T12:04:39.072Z,3.30
2017-10-05T12:07:07.426Z,2.40
2017-10-05T12:09:35.047Z,2.87
2017-10-05T12:12:02.627Z,2.27
2017-10-05T12:14:30.519Z,2.43
2017-10-05T12:16:58.114Z,2.80
2017-10-05T12:19:26.469Z,3.67
2017-10-05T12:21:54.254Z,3.57
2017-10-05T12:24:21.879Z,2.87
2017-10-05T12:26:49.783Z,15.40
2017-10-05T12:29:17.367Z,4.43
2017-10-05T12:31:45.392Z,2.80
2017-10-05T12:34:12.979Z,2.90
2017-10-05T12:36:40.578Z,2.50
2017-10-05T12:39:08.227Z,2.80
2017-10-05T12:41:35.807Z,2.43
2017-10-05T12:44:03.527Z,2.63
2017-10-05T12:46:31.111Z,2.50
2017-10-05T12:48:58.952Z,3.20
2017-10-05T12:51:26.617Z,3.47
2017-10-05T12:53:54.268Z,3.20
2017-10-05T12:56:21.875Z,4.20
2017-10-05T12:58:49.499Z,3.80
2017-10-05T13:01:17.335Z,4.27
2017-10-05T13:03:44.929Z,4.00
2017-10-05T13:06:12.563Z,3.40
2017-10-05T13:08:40.166Z,3.33
2017-10-05T13:11:07.794Z,3.00
2017-10-05T13:13:36.163Z,3.13
2017-10-05T13:16:04.556Z,3.60
2017-10-05T13:18:32.604Z,3.10
2017-10-05T13:21:01.098Z,3.83
2017-10-05T13:23:28.873Z,3.57
2017-10-05T13:25:56.482Z,3.70
2017-10-05T13:28:24.434Z,4.30
2017-10-05T13:30:52.051Z,3.10
2017-10-05T13:33:20.411Z,3.00
2017-10-05T13:35:48.357Z,3.63
2017-10-05T13:38:15.958Z,2.97
2017-10-05T13:40:44.314Z,3.70
2017-10-05T13:43:11.922Z,4.23
2017-10-05T13:45:39.525Z,4.53
2017-10-05T13:48:07.390Z,4.40
2017-10-05T13:50:34.984Z,5.00
2017-10-05T13:53:03.345Z,4.50
2017-10-05T13:55:31.720Z,5.40
2017-10-05T13:57:59.339Z,4.77
2017-10-05T14:00:26.982Z,4.23
2017-10-05T14:02:54.567Z,4.80
2017-10-05T14:05:22.571Z,5.10
2017-10-05T14:07:50.184Z,4.87
2017-10-05T14:10:17.785Z,4.67
2017-10-05T14:12:45.408Z,3.43
2017-10-05T14:15:12.990Z,4.40
2017-10-05T14:17:40.571Z,3.60
2017-10-05T14:20:08.938Z,4.13
2017-10-05T14:22:36.583Z,3.90
2017-10-05T14:25:04.351Z,3.60
2017-10-05T14:27:32.219Z,3.10
2017-10-05T14:29:59.763Z,3.60
2017-10-05T14:32:27.388Z,2.80
2017-10-05T14:34:55.021Z,3.30
2017-10-05T14:37:22.625Z,3.40
2017-10-05T14:39:50.240Z,3.00
2017-10-05T14:42:17.835Z,3.10
2017-10-05T14:44:45.741Z,2.87
2017-10-05T14:47:13.335Z,3.13
2017-10-05T14:49:41.692Z,3.87
2017-10-05T14:52:09.304Z,3.03
2017-10-05T14:54:36.988Z,3.20
2017-10-05T14:57:04.603Z,4.13
2017-10-05T14:59:32.961Z,3.20
2017-10-05T15:02:01.721Z,3.83
2017-10-05T15:04:29.352Z,3.40
2017-10-05T15:06:56.959Z,2.30
2017-10-05T15:09:24.562Z,2.77
2017-10-05T15:11:52.163Z,2.70
2017-10-05T15:14:19.775Z,3.60
2017-10-05T15:16:47.365Z,3.80
2017-10-05T15:19:15.222Z,3.80
2017-10-05T15:21:42.847Z,3.10
2017-10-05T15:24:11.177Z,3.43
2017-10-05T15:26:38.802Z,2.97
2017-10-05T15:29:06.454Z,3.17
2017-10-05T15:31:34.825Z,2.83
2017-10-05T15:34:03.211Z,3.73
2017-10-05T15:36:31.847Z,2.83
2017-10-05T15:38:59.447Z,2.67
2017-10-05T15:41:27.810Z,2.90
2017-10-05T15:43:55.462Z,2.53
2017-10-05T15:46:23.068Z,3.03
2017-10-05T15:48:50.685Z,2.20
2017-10-05T15:51:18.325Z,2.70
2017-10-05T15:53:46.219Z,2.00
2017-10-05T15:56:13.811Z,2.33
2017-10-05T15:58:41.410Z,1.53
2017-10-05T16:01:09.029Z,1.83
2017-10-05T16:03:36.635Z,2.13
2017-10-05T16:06:04.251Z,2.90
2017-10-05T16:08:31.821Z,2.57
2017-10-05T16:10:59.418Z,2.23
2017-10-05T16:13:27.026Z,3.03
2017-10-05T16:15:54.621Z,2.37
2017-10-05T16:18:22.626Z,2.40
2017-10-05T16:20:50.249Z,3.37
2017-10-05T16:23:17.863Z,2.70
2017-10-05T16:25:46.250Z,2.90
2017-10-05T16:28:13.875Z,3.80
2017-10-05T16:30:41.797Z,3.63
2017-10-05T16:33:09.430Z,5.10
2017-10-05T16:35:37.330Z,3.90
2017-10-05T16:38:04.955Z,4.20
2017-10-05T16:40:33.351Z,4.60
2017-10-05T16:43:01.181Z,4.70
2017-10-05T16:45:29.592Z,4.80
2017-10-05T16:47:58.287Z,4.27
2017-10-05T16:50:25.937Z,4.30
2017-10-05T16:52:53.552Z,4.37
2017-10-05T16:55:21.233Z,3.53
2017-10-05T16:57:49.020Z,5.33
2017-10-05T17:00:17.431Z,3.80
2017-10-05T17:02:45.109Z,4.67
2017-10-05T17:05:12.990Z,5.30
2017-10-05T17:07:40.687Z,5.33
2017-10-05T17:10:09.130Z,5.80
2017-10-05T17:12:36.916Z,5.90
2017-10-05T17:15:05.181Z,5.57
2017-10-05T17:17:33.630Z,4.80
2017-10-05T17:20:01.260Z,4.60
2017-10-05T17:22:29.224Z,4.57
2017-10-05T17:24:57.691Z,4.20
2017-10-05T17:27:26.236Z,4.70
2017-10-05T17:29:53.992Z,4.67
2017-10-05T17:32:21.619Z,5.57
2017-10-05T17:34:49.234Z,4.63
2017-10-05T17:37:16.859Z,5.50
2017-10-05T17:39:44.779Z,4.73
2017-10-05T17:42:13.121Z,5.20
2017-10-05T17:44:40.751Z,6.47
2017-10-05T17:47:08.343Z,8.53
2017-10-05T17:49:35.971Z,7.90
2017-10-05T17:52:03.591Z,12.30
2017-10-05T17:54:31.967Z,8.73
2017-10-05T17:56:59.867Z,13.60
2017-10-05T17:59:27.461Z,19.67
2017-10-05T18:01:55.213Z,27.93
2017-10-05T18:04:22.799Z,28.03
2017-10-05T18:06:50.416Z,26.23
2017-10-05T18:09:18.076Z,23.93
2017-10-05T18:11:45.684Z,30.77
2017-10-05T18:14:13.692Z,21.30
2017-10-05T18:16:42.060Z,11.83
2017-10-05T18:19:10.958Z,9.03
2017-10-05T18:21:39.346Z,10.13
2017-10-05T18:24:07.092Z,9.40
2017-10-05T18:26:35.482Z,9.47
2017-10-05T18:29:03.844Z,8.90
2017-10-05T18:31:31.797Z,10.40
2017-10-05T18:33:59.367Z,10.50
2017-10-05T18:36:26.969Z,12.70
2017-10-05T18:38:55.532Z,13.83
2017-10-05T18:41:23.207Z,12.77
2017-10-05T18:43:50.807Z,13.77
2017-10-05T18:46:18.391Z,13.47
2017-10-05T18:48:46.259Z,14.50
2017-10-05T18:51:13.842Z,14.93
2017-10-05T18:53:41.453Z,10.70
2017-10-05T18:56:09.270Z,10.03
2017-10-05T18:58:36.886Z,12.17
2017-10-05T19:01:04.530Z,12.57
2017-10-05T19:03:32.141Z,10.63
2017-10-05T19:06:01.609Z,15.33
2017-10-05T19:08:29.258Z,17.53
2017-10-05T19:10:56.842Z,13.47
2017-10-05T19:13:24.437Z,12.53
2017-10-05T19:15:52.042Z,12.20
2017-10-05T19:18:20.790Z,10.70
2017-10-05T19:20:49.879Z,19.57
2017-10-05T19:23:19.450Z,26.63
2017-10-05T19:25:47.657Z,21.43
2017-10-05T19:28:15.279Z,29.50
2017-10-05T19:30:43.009Z,21.80
2017-10-05T19:33:10.604Z,12.10
2017-10-05T19:35:38.243Z,11.03
2017-10-05T19:38:05.833Z,12.77
2017-10-05T19:40:33.877Z,11.00
2017-10-05T19:43:01.461Z,21.80
2017-10-05T19:45:29.053Z,17.13
2017-10-05T19:47:56.681Z,33.10
2017-10-05T19:50:24.252Z,14.80
2017-10-05T19:52:52.664Z,15.10
2017-10-05T19:55:20.246Z,14.80
2017-10-05T19:57:48.119Z,12.63
2017-10-05T20:00:15.714Z,11.03
2017-10-05T20:02:44.089Z,14.73
2017-10-05T20:05:12.521Z,12.00
2017-10-05T20:07:40.126Z,12.93
2017-10-05T20:10:07.955Z,14.90
2017-10-05T20:12:35.570Z,13.47
2017-10-05T20:15:10.883Z,12.33
2017-10-05T20:17:39.698Z,13.00
2017-10-05T20:20:14.062Z,11.20
2017-10-05T20:22:47.238Z,13.50
2017-10-05T20:25:20.754Z,13.97
2017-10-05T20:28:03.224Z,13.53
2017-10-05T20:30:37.480Z,14.40
2017-10-05T20:33:09.529Z,12.73
2017-10-05T20:35:37.422Z,12.97
2017-10-05T20:38:05.024Z,11.87
2017-10-05T20:40:33.444Z,12.70
2017-10-05T20:43:01.501Z,12.30
2017-10-05T20:45:29.147Z,13.27
2017-10-05T20:47:57.097Z,13.80
2017-10-05T20:50:25.526Z,13.70
2017-10-05T20:52:53.124Z,12.70
2017-10-05T20:55:21.544Z,13.17
2017-10-05T20:57:49.123Z,13.40
2017-10-05T21:00:17.482Z,14.60
2017-10-05T21:02:45.073Z,16.27
2017-10-05T21:05:13.202Z,15.03
2017-10-05T21:07:40.802Z,14.50
2017-10-05T21:10:08.497Z,14.57
2017-10-05T21:12:36.902Z,14.80
2017-10-05T21:15:04.497Z,13.30
2017-10-05T21:17:32.228Z,13.13
2017-10-05T21:19:59.834Z,12.00
2017-10-05T21:22:27.874Z,10.87
2017-10-05T21:24:55.458Z,11.03
2017-10-05T21:27:23.039Z,10.70
2017-10-05T21:29:51.473Z,11.10
2017-10-05T21:32:19.151Z,14.90
2017-10-05T21:34:46.767Z,11.77
2017-10-05T21:37:15.100Z,12.60
2017-10-05T21:39:43.086Z,14.27
2017-10-05T21:42:11.506Z,13.33
2017-10-05T21:44:39.747Z,11.07
2017-10-05T21:47:08.421Z,11.50
2017-10-05T21:49:37.018Z,11.63
2017-10-05T21:52:05.394Z,9.90
2017-10-05T21:54:33.753Z,10.73
2017-10-05T21:57:01.640Z,10.57
2017-10-05T21:59:30.010Z,11.60
2017-10-05T22:01:57.617Z,12.70
2017-10-05T22:04:25.266Z,11.07
2017-10-05T22:06:52.870Z,8.93
2017-10-05T22:09:20.485Z,10.90
2017-10-05T22:11:53.756Z,14.80
2017-10-05T22:14:22.723Z,12.10
2017-10-05T22:16:50.411Z,13.00
2017-10-05T22:19:18.784Z,15.40
2017-10-05T22:21:47.178Z,14.07
2017-10-05T22:24:14.768Z,13.57
2017-10-05T22:26:42.386Z,12.93
2017-10-05T22:29:10.771Z,12.67
2017-10-05T22:31:39.163Z,13.20
2017-10-05T22:34:06.758Z,11.47
2017-10-05T22:36:34.639Z,12.43
2017-10-05T22:39:02.336Z,10.80
2017-10-05T22:41:29.946Z,11.67
2017-10-05T22:43:57.538Z,12.00
2017-10-05T22:46:25.133Z,12.50
2017-10-05T22:48:52.744Z,11.40
2017-10-05T22:51:20.331Z,13.60
2017-10-05T22:53:48.979Z,11.77
2017-10-05T22:56:16.583Z,11.50
2017-10-05T22:58:45.110Z,12.40
2017-10-05T23:01:12.744Z,13.90
2017-10-05T23:03:40.346Z,12.57
2017-10-05T23:06:07.951Z,13.27
2017-10-05T23:08:36.287Z,12.47
2017-10-05T23:11:03.876Z,13.90
2017-10-05T23:13:32.261Z,14.70
2017-10-05T23:16:00.639Z,12.90
2017-10-05T23:18:29.034Z,12.50
2017-10-05T23:20:56.630Z,12.90
2017-10-05T23:23:24.232Z,13.57
2017-10-05T23:25:51.870Z,14.30
2017-10-05T23:28:19.450Z,12.50
2017-10-05T23:30:48.201Z,14.70
2017-10-05T23:33:15.806Z,13.10
2017-10-05T23:35:44.133Z,12.40
2017-10-05T23:38:11.738Z,11.17
2017-10-05T23:40:40.153Z,12.80
2017-10-05T23:43:07.786Z,12.67
2017-10-05T23:45:36.343Z,14.50
2017-10-05T23:48:04.293Z,12.80
2017-10-05T23:50:31.877Z,13.00
2017-10-05T23:53:00.222Z,12.10
2017-10-05T23:55:27.831Z,13.00
2017-10-05T23:57:56.262Z,11.90
